sensor_id;sensor_type;location;lat;lon;timestamp;pressure;altitude;pressure_sealevel;temperature;humidity
49463;BME280;35357;51.722;0.500;2022-09-17T00:00:40;101861.18;;;8.23;63.49
49463;BME280;35357;51.722;0.500;2022-09-17T00:03:07;101862.27;;;8.21;63.07
49463;BME280;35357;51.722;0.500;2022-09-17T00:05:35;101861.90;;;8.01;63.59
49463;BME280;35357;51.722;0.500;2022-09-17T00:08:04;101863.17;;;7.13;65.51
49463;BME280;35357;51.722;0.500;2022-09-17T00:10:35;101861.04;;;8.09;63.65
49463;BME280;35357;51.722;0.500;2022-09-17T00:13:03;101869.98;;;7.60;64.90
49463;BME280;35357;51.722;0.500;2022-09-17T00:15:31;101871.17;;;7.82;64.68
49463;BME280;35357;51.722;0.500;2022-09-17T00:17:59;101865.28;;;8.39;62.99
49463;BME280;35357;51.722;0.500;2022-09-17T00:20:26;101862.04;;;8.34;62.65
49463;BME280;35357;51.722;0.500;2022-09-17T00:22:53;101869.07;;;8.42;62.24
49463;BME280;35357;51.722;0.500;2022-09-17T00:25:21;101875.72;;;8.27;62.51
49463;BME280;35357;51.722;0.500;2022-09-17T00:27:47;101868.08;;;8.34;62.67
49463;BME280;35357;51.722;0.500;2022-09-17T00:30:14;101863.62;;;8.68;61.42
49463;BME280;35357;51.722;0.500;2022-09-17T00:32:42;101861.14;;;8.49;61.95
49463;BME280;35357;51.722;0.500;2022-09-17T00:35:09;101865.99;;;8.11;62.01
49463;BME280;35357;51.722;0.500;2022-09-17T00:37:36;101868.79;;;8.17;63.46
49463;BME280;35357;51.722;0.500;2022-09-17T00:40:03;101866.14;;;8.25;63.13
49463;BME280;35357;51.722;0.500;2022-09-17T00:42:31;101870.33;;;8.24;62.07
49463;BME280;35357;51.722;0.500;2022-09-17T00:44:58;101868.33;;;7.90;62.98
49463;BME280;35357;51.722;0.500;2022-09-17T00:47:30;101868.19;;;7.92;63.52
49463;BME280;35357;51.722;0.500;2022-09-17T00:50:00;101863.52;;;8.17;62.89
49463;BME280;35357;51.722;0.500;2022-09-17T00:52:31;101874.75;;;7.25;65.45
49463;BME280;35357;51.722;0.500;2022-09-17T00:55:06;101869.14;;;7.49;65.50
49463;BME280;35357;51.722;0.500;2022-09-17T00:57:37;101863.15;;;7.48;64.44
49463;BME280;35357;51.722;0.500;2022-09-17T01:00:07;101870.90;;;7.94;61.58
49463;BME280;35357;51.722;0.500;2022-09-17T01:02:34;101871.65;;;8.93;60.60
49463;BME280;35357;51.722;0.500;2022-09-17T01:05:02;101873.34;;;8.35;60.46
49463;BME280;35357;51.722;0.500;2022-09-17T01:07:44;101871.70;;;7.75;63.41
49463;BME280;35357;51.722;0.500;2022-09-17T01:10:28;101872.01;;;7.77;63.72
49463;BME280;35357;51.722;0.500;2022-09-17T01:13:08;101865.89;;;7.95;64.19
49463;BME280;35357;51.722;0.500;2022-09-17T01:15:41;101864.55;;;8.24;62.24
49463;BME280;35357;51.722;0.500;2022-09-17T01:18:21;101867.17;;;8.45;60.89
49463;BME280;35357;51.722;0.500;2022-09-17T01:21:15;101874.72;;;7.70;63.48
49463;BME280;35357;51.722;0.500;2022-09-17T01:24:10;101869.82;;;7.45;64.32
49463;BME280;35357;51.722;0.500;2022-09-17T01:29:19;101874.95;;;7.97;65.18
49463;BME280;35357;51.722;0.500;2022-09-17T01:31:56;101881.38;;;7.12;67.05
49463;BME280;35357;51.722;0.500;2022-09-17T01:34:32;101881.01;;;7.52;66.16
49463;BME280;35357;51.722;0.500;2022-09-17T01:37:06;101882.43;;;7.26;66.14
49463;BME280;35357;51.722;0.500;2022-09-17T01:39:43;101876.05;;;7.46;66.71
49463;BME280;35357;51.722;0.500;2022-09-17T01:42:16;101884.61;;;7.42;66.45
49463;BME280;35357;51.722;0.500;2022-09-17T01:44:52;101890.32;;;7.40;65.43
49463;BME280;35357;51.722;0.500;2022-09-17T01:47:23;101889.92;;;7.58;65.90
49463;BME280;35357;51.722;0.500;2022-09-17T01:49:59;101879.37;;;8.49;62.77
49463;BME280;35357;51.722;0.500;2022-09-17T01:52:27;101880.31;;;8.04;63.59
49463;BME280;35357;51.722;0.500;2022-09-17T01:55:01;101876.52;;;7.45;64.74
49463;BME280;35357;51.722;0.500;2022-09-17T01:57:34;101879.74;;;7.04;68.08
49463;BME280;35357;51.722;0.500;2022-09-17T02:00:07;101887.20;;;7.08;66.88
49463;BME280;35357;51.722;0.500;2022-09-17T02:02:39;101885.89;;;6.78;69.02
49463;BME280;35357;51.722;0.500;2022-09-17T02:05:10;101879.96;;;6.35;69.23
49463;BME280;35357;51.722;0.500;2022-09-17T02:07:43;101881.84;;;6.80;69.40
49463;BME280;35357;51.722;0.500;2022-09-17T02:10:16;101891.39;;;7.14;68.13
49463;BME280;35357;51.722;0.500;2022-09-17T02:12:47;101882.95;;;7.10;69.14
49463;BME280;35357;51.722;0.500;2022-09-17T02:15:21;101884.98;;;7.37;68.58
49463;BME280;35357;51.722;0.500;2022-09-17T02:17:53;101889.70;;;7.28;68.04
49463;BME280;35357;51.722;0.500;2022-09-17T02:20:25;101886.00;;;7.17;68.04
49463;BME280;35357;51.722;0.500;2022-09-17T02:22:58;101886.79;;;7.45;68.17
49463;BME280;35357;51.722;0.500;2022-09-17T02:25:32;101890.09;;;7.52;66.96
49463;BME280;35357;51.722;0.500;2022-09-17T02:28:04;101893.17;;;7.93;65.78
49463;BME280;35357;51.722;0.500;2022-09-17T02:30:34;101889.74;;;7.44;68.16
49463;BME280;35357;51.722;0.500;2022-09-17T02:33:02;101886.90;;;7.80;66.22
49463;BME280;35357;51.722;0.500;2022-09-17T02:35:31;101884.79;;;7.50;66.66
49463;BME280;35357;51.722;0.500;2022-09-17T02:37:59;101888.70;;;7.10;68.15
49463;BME280;35357;51.722;0.500;2022-09-17T02:40:29;101884.92;;;7.91;66.93
49463;BME280;35357;51.722;0.500;2022-09-17T02:43:03;101880.15;;;8.20;64.51
49463;BME280;35357;51.722;0.500;2022-09-17T02:45:43;101882.54;;;8.08;64.74
49463;BME280;35357;51.722;0.500;2022-09-17T02:48:23;101886.01;;;7.29;67.33
49463;BME280;35357;51.722;0.500;2022-09-17T02:51:06;101891.03;;;6.55;69.79
49463;BME280;35357;51.722;0.500;2022-09-17T02:53:44;101893.62;;;7.50;68.45
49463;BME280;35357;51.722;0.500;2022-09-17T02:56:18;101890.04;;;6.09;72.33
49463;BME280;35357;51.722;0.500;2022-09-17T02:58:51;101892.82;;;6.66;71.08
49463;BME280;35357;51.722;0.500;2022-09-17T03:01:31;101892.43;;;6.47;71.64
49463;BME280;35357;51.722;0.500;2022-09-17T03:04:02;101887.66;;;6.49;72.70
49463;BME280;35357;51.722;0.500;2022-09-17T03:06:31;101889.74;;;6.78;71.77
49463;BME280;35357;51.722;0.500;2022-09-17T03:08:59;101889.96;;;6.56;72.20
49463;BME280;35357;51.722;0.500;2022-09-17T03:11:26;101891.62;;;5.78;74.06
49463;BME280;35357;51.722;0.500;2022-09-17T03:13:54;101886.62;;;6.19;73.76
49463;BME280;35357;51.722;0.500;2022-09-17T03:16:20;101883.24;;;5.80;74.23
49463;BME280;35357;51.722;0.500;2022-09-17T03:18:47;101883.27;;;5.58;75.58
49463;BME280;35357;51.722;0.500;2022-09-17T03:21:14;101884.48;;;5.85;74.12
49463;BME280;35357;51.722;0.500;2022-09-17T03:23:41;101888.63;;;5.57;75.72
49463;BME280;35357;51.722;0.500;2022-09-17T03:26:08;101887.67;;;5.72;75.48
49463;BME280;35357;51.722;0.500;2022-09-17T03:28:35;101884.01;;;6.02;74.74
49463;BME280;35357;51.722;0.500;2022-09-17T03:31:02;101881.04;;;6.12;74.27
49463;BME280;35357;51.722;0.500;2022-09-17T03:33:30;101883.91;;;5.55;76.23
49463;BME280;35357;51.722;0.500;2022-09-17T03:35:57;101886.71;;;6.15;75.02
49463;BME280;35357;51.722;0.500;2022-09-17T03:38:24;101887.69;;;5.61;76.60
49463;BME280;35357;51.722;0.500;2022-09-17T03:40:58;101887.67;;;5.34;75.86
49463;BME280;35357;51.722;0.500;2022-09-17T03:43:25;101883.22;;;5.81;75.64
49463;BME280;35357;51.722;0.500;2022-09-17T03:45:52;101883.34;;;5.90;75.49
49463;BME280;35357;51.722;0.500;2022-09-17T03:48:20;101883.52;;;5.59;76.08
49463;BME280;35357;51.722;0.500;2022-09-17T03:50:48;101883.81;;;5.55;76.46
49463;BME280;35357;51.722;0.500;2022-09-17T03:53:15;101886.40;;;6.02;75.09
49463;BME280;35357;51.722;0.500;2022-09-17T03:55:43;101884.82;;;5.44;75.68
49463;BME280;35357;51.722;0.500;2022-09-17T03:58:10;101890.73;;;5.39;76.76
49463;BME280;35357;51.722;0.500;2022-09-17T04:00:38;101896.41;;;5.02;77.91
49463;BME280;35357;51.722;0.500;2022-09-17T04:03:05;101899.99;;;5.45;76.92
49463;BME280;35357;51.722;0.500;2022-09-17T04:05:32;101902.41;;;5.02;77.83
49463;BME280;35357;51.722;0.500;2022-09-17T04:07:58;101900.51;;;5.50;76.43
49463;BME280;35357;51.722;0.500;2022-09-17T04:10:25;101901.05;;;5.87;74.85
49463;BME280;35357;51.722;0.500;2022-09-17T04:12:52;101898.26;;;5.65;75.22
49463;BME280;35357;51.722;0.500;2022-09-17T04:15:19;101896.83;;;5.85;74.39
49463;BME280;35357;51.722;0.500;2022-09-17T04:17:46;101895.30;;;6.40;72.72
49463;BME280;35357;51.722;0.500;2022-09-17T04:20:13;101899.10;;;5.85;73.81
49463;BME280;35357;51.722;0.500;2022-09-17T04:22:41;101901.73;;;5.19;75.83
49463;BME280;35357;51.722;0.500;2022-09-17T04:25:08;101904.73;;;5.26;75.86
49463;BME280;35357;51.722;0.500;2022-09-17T04:27:35;101911.34;;;5.58;76.39
49463;BME280;35357;51.722;0.500;2022-09-17T04:30:05;101906.75;;;5.48;76.20
49463;BME280;35357;51.722;0.500;2022-09-17T04:32:32;101909.57;;;6.11;74.14
49463;BME280;35357;51.722;0.500;2022-09-17T04:34:59;101907.71;;;6.36;72.64
49463;BME280;35357;51.722;0.500;2022-09-17T04:37:26;101908.46;;;5.75;73.70
49463;BME280;35357;51.722;0.500;2022-09-17T04:39:53;101906.01;;;5.97;73.42
49463;BME280;35357;51.722;0.500;2022-09-17T04:42:21;101906.72;;;6.26;72.39
49463;BME280;35357;51.722;0.500;2022-09-17T04:44:48;101904.82;;;6.61;72.55
49463;BME280;35357;51.722;0.500;2022-09-17T04:47:15;101904.02;;;6.18;73.21
49463;BME280;35357;51.722;0.500;2022-09-17T04:49:42;101901.16;;;5.92;73.18
49463;BME280;35357;51.722;0.500;2022-09-17T04:52:09;101906.17;;;5.98;72.92
49463;BME280;35357;51.722;0.500;2022-09-17T04:54:36;101905.89;;;6.55;70.91
49463;BME280;35357;51.722;0.500;2022-09-17T04:57:03;101905.15;;;6.17;71.29
49463;BME280;35357;51.722;0.500;2022-09-17T04:59:31;101902.83;;;6.03;71.51
49463;BME280;35357;51.722;0.500;2022-09-17T05:01:58;101902.29;;;6.47;70.73
49463;BME280;35357;51.722;0.500;2022-09-17T05:04:25;101902.81;;;6.28;70.24
49463;BME280;35357;51.722;0.500;2022-09-17T05:06:52;101904.99;;;7.06;69.05
49463;BME280;35357;51.722;0.500;2022-09-17T05:09:19;101907.62;;;6.45;69.92
49463;BME280;35357;51.722;0.500;2022-09-17T05:11:46;101908.66;;;6.19;71.33
49463;BME280;35357;51.722;0.500;2022-09-17T05:14:12;101910.85;;;6.72;69.31
49463;BME280;35357;51.722;0.500;2022-09-17T05:16:40;101918.07;;;6.66;70.32
49463;BME280;35357;51.722;0.500;2022-09-17T05:19:07;101922.50;;;6.08;72.82
49463;BME280;35357;51.722;0.500;2022-09-17T05:21:34;101922.65;;;5.65;73.84
49463;BME280;35357;51.722;0.500;2022-09-17T05:24:01;101925.12;;;5.27;74.44
49463;BME280;35357;51.722;0.500;2022-09-17T05:26:29;101929.69;;;5.50;74.65
49463;BME280;35357;51.722;0.500;2022-09-17T05:28:56;101935.91;;;5.49;76.16
49463;BME280;35357;51.722;0.500;2022-09-17T05:31:23;101938.58;;;5.65;75.49
49463;BME280;35357;51.722;0.500;2022-09-17T05:33:50;101940.55;;;5.44;76.11
49463;BME280;35357;51.722;0.500;2022-09-17T05:36:17;101940.12;;;5.48;74.90
49463;BME280;35357;51.722;0.500;2022-09-17T05:38:44;101934.72;;;5.46;74.58
49463;BME280;35357;51.722;0.500;2022-09-17T05:41:11;101932.37;;;5.88;74.60
49463;BME280;35357;51.722;0.500;2022-09-17T05:43:39;101931.06;;;5.76;74.57
49463;BME280;35357;51.722;0.500;2022-09-17T05:46:06;101941.68;;;4.69;77.15
49463;BME280;35357;51.722;0.500;2022-09-17T05:48:33;101934.69;;;4.93;78.43
49463;BME280;35357;51.722;0.500;2022-09-17T05:51:00;101937.88;;;4.93;77.32
49463;BME280;35357;51.722;0.500;2022-09-17T05:53:27;101937.81;;;4.93;78.26
49463;BME280;35357;51.722;0.500;2022-09-17T05:55:55;101938.19;;;5.31;76.87
49463;BME280;35357;51.722;0.500;2022-09-17T05:58:22;101938.18;;;4.94;77.50
49463;BME280;35357;51.722;0.500;2022-09-17T06:00:49;101939.76;;;5.11;77.47
49463;BME280;35357;51.722;0.500;2022-09-17T06:03:17;101946.07;;;5.36;77.04
49463;BME280;35357;51.722;0.500;2022-09-17T06:05:52;101946.28;;;5.51;76.65
49463;BME280;35357;51.722;0.500;2022-09-17T06:08:20;101948.34;;;5.37;76.95
49463;BME280;35357;51.722;0.500;2022-09-17T06:10:47;101945.71;;;4.98;78.26
49463;BME280;35357;51.722;0.500;2022-09-17T06:13:15;101945.95;;;5.39;77.27
49463;BME280;35357;51.722;0.500;2022-09-17T06:15:47;101949.08;;;5.08;78.33
49463;BME280;35357;51.722;0.500;2022-09-17T06:18:15;101952.36;;;4.75;80.93
49463;BME280;35357;51.722;0.500;2022-09-17T06:20:42;101956.00;;;5.05;79.76
49463;BME280;35357;51.722;0.500;2022-09-17T06:23:09;101957.59;;;4.71;79.75
49463;BME280;35357;51.722;0.500;2022-09-17T06:25:35;101957.02;;;5.14;78.31
49463;BME280;35357;51.722;0.500;2022-09-17T06:28:03;101961.97;;;5.07;78.40
49463;BME280;35357;51.722;0.500;2022-09-17T06:30:30;101961.52;;;5.27;77.39
49463;BME280;35357;51.722;0.500;2022-09-17T06:32:59;101962.90;;;5.27;77.31
49463;BME280;35357;51.722;0.500;2022-09-17T06:35:26;101966.38;;;5.44;77.40
49463;BME280;35357;51.722;0.500;2022-09-17T06:37:53;101962.26;;;5.25;77.79
49463;BME280;35357;51.722;0.500;2022-09-17T06:40:20;101963.21;;;5.34;76.99
49463;BME280;35357;51.722;0.500;2022-09-17T06:42:47;101956.91;;;6.26;75.20
49463;BME280;35357;51.722;0.500;2022-09-17T06:45:14;101956.01;;;6.55;72.68
49463;BME280;35357;51.722;0.500;2022-09-17T06:47:41;101960.15;;;6.69;72.30
49463;BME280;35357;51.722;0.500;2022-09-17T06:50:08;101962.49;;;5.53;75.59
49463;BME280;35357;51.722;0.500;2022-09-17T06:52:36;101962.51;;;5.51;77.22
49463;BME280;35357;51.722;0.500;2022-09-17T06:55:03;101957.34;;;5.90;75.30
49463;BME280;35357;51.722;0.500;2022-09-17T06:57:30;101951.26;;;5.69;75.97
49463;BME280;35357;51.722;0.500;2022-09-17T06:59:58;101960.23;;;5.33;77.47
49463;BME280;35357;51.722;0.500;2022-09-17T07:02:25;101956.66;;;5.84;76.71
49463;BME280;35357;51.722;0.500;2022-09-17T07:04:52;101952.75;;;6.56;76.65
49463;BME280;35357;51.722;0.500;2022-09-17T07:07:19;101959.50;;;5.84;76.72
49463;BME280;35357;51.722;0.500;2022-09-17T07:09:46;101957.91;;;5.87;77.03
49463;BME280;35357;51.722;0.500;2022-09-17T07:12:13;101955.26;;;6.06;75.40
49463;BME280;35357;51.722;0.500;2022-09-17T07:14:40;101954.50;;;6.81;73.93
49463;BME280;35357;51.722;0.500;2022-09-17T07:17:07;101957.48;;;6.12;75.15
49463;BME280;35357;51.722;0.500;2022-09-17T07:19:34;101960.86;;;6.08;75.63
49463;BME280;35357;51.722;0.500;2022-09-17T07:22:01;101958.75;;;6.05;76.05
49463;BME280;35357;51.722;0.500;2022-09-17T07:24:29;101954.64;;;6.05;76.43
49463;BME280;35357;51.722;0.500;2022-09-17T07:26:56;101952.20;;;6.24;76.42
49463;BME280;35357;51.722;0.500;2022-09-17T07:29:23;101953.52;;;5.89;77.69
49463;BME280;35357;51.722;0.500;2022-09-17T07:31:50;101948.00;;;5.98;76.37
49463;BME280;35357;51.722;0.500;2022-09-17T07:34:17;101941.84;;;6.12;75.90
49463;BME280;35357;51.722;0.500;2022-09-17T07:36:44;101937.71;;;7.86;71.24
49463;BME280;35357;51.722;0.500;2022-09-17T07:39:11;101937.16;;;7.33;70.37
49463;BME280;35357;51.722;0.500;2022-09-17T07:41:39;101937.34;;;6.84;73.18
49463;BME280;35357;51.722;0.500;2022-09-17T07:44:06;101933.38;;;6.99;73.56
49463;BME280;35357;51.722;0.500;2022-09-17T07:46:34;101937.73;;;6.83;74.08
49463;BME280;35357;51.722;0.500;2022-09-17T07:49:01;101931.53;;;6.98;73.20
49463;BME280;35357;51.722;0.500;2022-09-17T07:51:29;101933.60;;;7.49;70.96
49463;BME280;35357;51.722;0.500;2022-09-17T07:53:57;101936.86;;;8.19;69.36
49463;BME280;35357;51.722;0.500;2022-09-17T07:56:25;101933.98;;;7.72;70.87
49463;BME280;35357;51.722;0.500;2022-09-17T07:58:53;101932.08;;;7.85;69.89
49463;BME280;35357;51.722;0.500;2022-09-17T08:01:21;101930.66;;;7.94;68.47
49463;BME280;35357;51.722;0.500;2022-09-17T08:03:50;101929.05;;;8.52;67.41
49463;BME280;35357;51.722;0.500;2022-09-17T08:06:20;101927.63;;;8.98;66.16
49463;BME280;35357;51.722;0.500;2022-09-17T08:08:48;101924.24;;;9.11;64.92
49463;BME280;35357;51.722;0.500;2022-09-17T08:11:17;101931.74;;;8.02;67.64
49463;BME280;35357;51.722;0.500;2022-09-17T08:13:47;101929.53;;;8.53;66.90
49463;BME280;35357;51.722;0.500;2022-09-17T08:16:14;101924.03;;;8.66;65.88
49463;BME280;35357;51.722;0.500;2022-09-17T08:18:43;101930.23;;;8.47;66.09
49463;BME280;35357;51.722;0.500;2022-09-17T08:21:12;101935.82;;;8.91;64.85
49463;BME280;35357;51.722;0.500;2022-09-17T08:23:41;101934.07;;;8.13;66.41
49463;BME280;35357;51.722;0.500;2022-09-17T08:26:13;101931.35;;;8.70;65.49
49463;BME280;35357;51.722;0.500;2022-09-17T08:28:44;101934.87;;;8.47;64.32
49463;BME280;35357;51.722;0.500;2022-09-17T08:31:11;101931.55;;;9.24;64.08
49463;BME280;35357;51.722;0.500;2022-09-17T08:33:39;101935.26;;;8.97;62.69
49463;BME280;35357;51.722;0.500;2022-09-17T08:36:09;101942.23;;;9.08;61.96
49463;BME280;35357;51.722;0.500;2022-09-17T08:38:38;101946.23;;;9.40;61.14
49463;BME280;35357;51.722;0.500;2022-09-17T08:41:15;101943.57;;;9.22;60.21
49463;BME280;35357;51.722;0.500;2022-09-17T08:43:53;101947.32;;;9.13;59.32
49463;BME280;35357;51.722;0.500;2022-09-17T08:46:26;101945.46;;;8.94;62.12
49463;BME280;35357;51.722;0.500;2022-09-17T08:49:01;101954.46;;;9.13;61.78
49463;BME280;35357;51.722;0.500;2022-09-17T08:51:37;101953.03;;;9.15;60.60
49463;BME280;35357;51.722;0.500;2022-09-17T08:54:13;101954.07;;;9.17;59.58
49463;BME280;35357;51.722;0.500;2022-09-17T08:56:46;101953.53;;;9.18;59.66
49463;BME280;35357;51.722;0.500;2022-09-17T08:59:21;101950.25;;;9.20;59.05
49463;BME280;35357;51.722;0.500;2022-09-17T09:01:58;101953.30;;;9.23;58.42
49463;BME280;35357;51.722;0.500;2022-09-17T09:04:36;101955.05;;;9.35;58.57
49463;BME280;35357;51.722;0.500;2022-09-17T09:07:12;101951.96;;;9.76;57.70
49463;BME280;35357;51.722;0.500;2022-09-17T09:09:47;101948.98;;;10.03;57.10
49463;BME280;35357;51.722;0.500;2022-09-17T09:12:23;101947.34;;;9.57;56.97
49463;BME280;35357;51.722;0.500;2022-09-17T09:14:55;101950.87;;;10.45;56.12
49463;BME280;35357;51.722;0.500;2022-09-17T09:17:28;101959.16;;;9.75;56.02
49463;BME280;35357;51.722;0.500;2022-09-17T09:19:58;101950.85;;;9.80;56.12
49463;BME280;35357;51.722;0.500;2022-09-17T09:22:37;101954.13;;;9.48;57.05
49463;BME280;35357;51.722;0.500;2022-09-17T09:25:17;101957.72;;;9.91;56.80
49463;BME280;35357;51.722;0.500;2022-09-17T09:27:48;101955.72;;;10.45;55.43
49463;BME280;35357;51.722;0.500;2022-09-17T09:30:20;101953.88;;;10.26;55.50
49463;BME280;35357;51.722;0.500;2022-09-17T09:32:55;101958.79;;;10.78;53.94
49463;BME280;35357;51.722;0.500;2022-09-17T09:35:25;101956.99;;;10.97;52.32
49463;BME280;35357;51.722;0.500;2022-09-17T09:37:57;101956.16;;;10.42;53.91
49463;BME280;35357;51.722;0.500;2022-09-17T09:40:32;101964.26;;;10.51;54.99
49463;BME280;35357;51.722;0.500;2022-09-17T09:43:20;101967.05;;;10.23;55.44
49463;BME280;35357;51.722;0.500;2022-09-17T09:46:04;101966.23;;;9.72;55.30
49463;BME280;35357;51.722;0.500;2022-09-17T09:48:40;101965.23;;;9.68;55.47
49463;BME280;35357;51.722;0.500;2022-09-17T09:51:19;101968.72;;;9.98;55.50
49463;BME280;35357;51.722;0.500;2022-09-17T09:54:01;101958.47;;;10.79;55.11
49463;BME280;35357;51.722;0.500;2022-09-17T09:56:45;101961.93;;;10.61;54.25
49463;BME280;35357;51.722;0.500;2022-09-17T09:59:14;101976.26;;;10.94;54.06
49463;BME280;35357;51.722;0.500;2022-09-17T10:01:43;101974.55;;;10.51;53.58
49463;BME280;35357;51.722;0.500;2022-09-17T10:04:18;101969.75;;;10.90;52.66
49463;BME280;35357;51.722;0.500;2022-09-17T10:06:46;101972.69;;;11.42;52.42
49463;BME280;35357;51.722;0.500;2022-09-17T10:09:15;101976.33;;;10.17;52.85
49463;BME280;35357;51.722;0.500;2022-09-17T10:11:59;101966.05;;;10.80;52.09
49463;BME280;35357;51.722;0.500;2022-09-17T10:14:28;101965.99;;;10.90;52.02
49463;BME280;35357;51.722;0.500;2022-09-17T10:17:16;101969.48;;;11.14;49.88
49463;BME280;35357;51.722;0.500;2022-09-17T10:19:45;101966.75;;;11.22;49.95
49463;BME280;35357;51.722;0.500;2022-09-17T10:22:19;101970.03;;;10.72;49.98
49463;BME280;35357;51.722;0.500;2022-09-17T10:24:49;101969.13;;;11.47;48.82
49463;BME280;35357;51.722;0.500;2022-09-17T10:27:19;101967.89;;;11.50;49.76
49463;BME280;35357;51.722;0.500;2022-09-17T10:29:49;101961.79;;;11.89;48.25
49463;BME280;35357;51.722;0.500;2022-09-17T10:32:19;101957.74;;;11.29;48.54
49463;BME280;35357;51.722;0.500;2022-09-17T10:34:58;101953.53;;;10.97;48.86
49463;BME280;35357;51.722;0.500;2022-09-17T10:37:40;101953.47;;;11.12;49.72
49463;BME280;35357;51.722;0.500;2022-09-17T10:40:26;101954.82;;;11.42;48.64
49463;BME280;35357;51.722;0.500;2022-09-17T10:43:17;101946.41;;;11.76;48.70
49463;BME280;35357;51.722;0.500;2022-09-17T10:45:56;101950.35;;;11.75;48.26
49463;BME280;35357;51.722;0.500;2022-09-17T10:48:25;101945.10;;;11.77;47.56
49463;BME280;35357;51.722;0.500;2022-09-17T10:50:55;101940.95;;;12.10;48.33
49463;BME280;35357;51.722;0.500;2022-09-17T10:53:24;101944.88;;;11.94;47.28
49463;BME280;35357;51.722;0.500;2022-09-17T10:56:01;101943.55;;;11.64;48.23
49463;BME280;35357;51.722;0.500;2022-09-17T10:58:42;101940.83;;;11.76;46.77
49463;BME280;35357;51.722;0.500;2022-09-17T11:01:25;101943.92;;;12.28;46.94
49463;BME280;35357;51.722;0.500;2022-09-17T11:04:14;101945.75;;;11.75;45.66
49463;BME280;35357;51.722;0.500;2022-09-17T11:06:58;101942.51;;;11.70;46.82
49463;BME280;35357;51.722;0.500;2022-09-17T11:09:39;101942.90;;;11.82;45.26
49463;BME280;35357;51.722;0.500;2022-09-17T11:12:21;101945.18;;;12.10;45.95
49463;BME280;35357;51.722;0.500;2022-09-17T11:14:53;101945.48;;;11.47;46.19
49463;BME280;35357;51.722;0.500;2022-09-17T11:17:36;101940.73;;;11.83;45.91
49463;BME280;35357;51.722;0.500;2022-09-17T11:20:17;101945.32;;;11.31;46.68
49463;BME280;35357;51.722;0.500;2022-09-17T11:22:54;101946.50;;;11.27;47.10
49463;BME280;35357;51.722;0.500;2022-09-17T11:25:36;101932.96;;;11.63;46.71
49463;BME280;35357;51.722;0.500;2022-09-17T11:28:12;101945.15;;;11.79;45.22
49463;BME280;35357;51.722;0.500;2022-09-17T11:30:53;101936.46;;;11.51;46.75
49463;BME280;35357;51.722;0.500;2022-09-17T11:33:32;101938.00;;;11.68;45.85
49463;BME280;35357;51.722;0.500;2022-09-17T11:36:12;101935.60;;;12.02;46.18
49463;BME280;35357;51.722;0.500;2022-09-17T11:38:44;101931.26;;;12.51;46.13
49463;BME280;35357;51.722;0.500;2022-09-17T11:41:16;101931.79;;;11.23;46.00
49463;BME280;35357;51.722;0.500;2022-09-17T11:43:49;101933.38;;;12.22;45.53
49463;BME280;35357;51.722;0.500;2022-09-17T11:46:23;101926.89;;;12.12;46.22
49463;BME280;35357;51.722;0.500;2022-09-17T11:48:57;101925.67;;;12.05;46.15
49463;BME280;35357;51.722;0.500;2022-09-17T11:51:30;101922.06;;;11.99;47.38
49463;BME280;35357;51.722;0.500;2022-09-17T11:54:05;101920.63;;;11.58;48.24
49463;BME280;35357;51.722;0.500;2022-09-17T11:56:37;101911.47;;;12.16;47.60
49463;BME280;35357;51.722;0.500;2022-09-17T11:59:13;101902.18;;;12.56;45.57
49463;BME280;35357;51.722;0.500;2022-09-17T12:01:47;101908.47;;;12.57;45.72
49463;BME280;35357;51.722;0.500;2022-09-17T12:04:30;101905.61;;;12.67;44.33
49463;BME280;35357;51.722;0.500;2022-09-17T12:07:03;101904.37;;;12.83;43.62
49463;BME280;35357;51.722;0.500;2022-09-17T12:09:36;101904.43;;;12.72;43.32
49463;BME280;35357;51.722;0.500;2022-09-17T12:12:09;101904.49;;;12.44;44.44
49463;BME280;35357;51.722;0.500;2022-09-17T12:14:45;101899.06;;;12.84;42.85
49463;BME280;35357;51.722;0.500;2022-09-17T12:17:18;101899.08;;;12.82;43.87
49463;BME280;35357;51.722;0.500;2022-09-17T12:19:50;101895.67;;;13.23;43.65
49463;BME280;35357;51.722;0.500;2022-09-17T12:22:24;101897.57;;;13.17;43.81
49463;BME280;35357;51.722;0.500;2022-09-17T12:24:53;101894.83;;;12.85;43.41
49463;BME280;35357;51.722;0.500;2022-09-17T12:27:33;101900.62;;;13.15;42.19
49463;BME280;35357;51.722;0.500;2022-09-17T12:30:10;101900.43;;;12.77;43.24
49463;BME280;35357;51.722;0.500;2022-09-17T12:32:48;101903.85;;;13.41;41.14
49463;BME280;35357;51.722;0.500;2022-09-17T12:35:28;101909.40;;;13.32;41.09
49463;BME280;35357;51.722;0.500;2022-09-17T12:38:08;101895.17;;;12.71;42.30
49463;BME280;35357;51.722;0.500;2022-09-17T12:40:38;101903.38;;;12.68;42.55
49463;BME280;35357;51.722;0.500;2022-09-17T12:43:26;101900.94;;;12.51;41.69
49463;BME280;35357;51.722;0.500;2022-09-17T12:46:05;101900.34;;;12.64;42.44
49463;BME280;35357;51.722;0.500;2022-09-17T12:48:46;101903.12;;;13.07;42.41
49463;BME280;35357;51.722;0.500;2022-09-17T12:51:26;101901.34;;;13.26;42.50
49463;BME280;35357;51.722;0.500;2022-09-17T12:54:05;101895.47;;;12.78;42.86
49463;BME280;35357;51.722;0.500;2022-09-17T12:56:48;101897.20;;;13.43;42.23
49463;BME280;35357;51.722;0.500;2022-09-17T12:59:23;101897.55;;;13.67;41.17
49463;BME280;35357;51.722;0.500;2022-09-17T13:01:58;101902.83;;;13.64;41.36
49463;BME280;35357;51.722;0.500;2022-09-17T13:04:47;101896.65;;;13.47;40.59
49463;BME280;35357;51.722;0.500;2022-09-17T13:07:38;101903.54;;;13.73;39.64
49463;BME280;35357;51.722;0.500;2022-09-17T13:10:39;101902.93;;;13.47;39.97
49463;BME280;35357;51.722;0.500;2022-09-17T13:13:19;101892.52;;;13.73;39.10
49463;BME280;35357;51.722;0.500;2022-09-17T13:15:57;101887.06;;;12.81;39.54
49463;BME280;35357;51.722;0.500;2022-09-17T13:18:32;101895.71;;;13.38;39.58
49463;BME280;35357;51.722;0.500;2022-09-17T13:21:05;101898.01;;;14.32;39.20
49463;BME280;35357;51.722;0.500;2022-09-17T13:23:38;101899.69;;;13.79;39.24